sensor_id;sensor_type;location;lat;lon;timestamp;P1;durP1;ratioP1;P2;durP2;ratioP2
6217;SDS011;3142;48.206;11.550;2022-10-16T00:00:47;2.13;;;1.90;;
6217;SDS011;3142;48.206;11.550;2022-10-16T00:03:14;2.57;;;2.33;;
6217;SDS011;3142;48.206;11.550;2022-10-16T00:05:41;3.70;;;2.10;;
6217;SDS011;3142;48.206;11.550;2022-10-16T00:08:09;4.97;;;2.00;;
6217;SDS011;3142;48.206;11.550;2022-10-16T00:10:37;3.57;;;2.00;;
6217;SDS011;3142;48.206;11.550;2022-10-16T00:13:03;6.53;;;2.10;;
6217;SDS011;3142;48.206;11.550;2022-10-16T00:15:34;2.90;;;2.30;;
6217;SDS011;3142;48.206;11.550;2022-10-16T00:18:02;2.73;;;1.90;;
6217;SDS011;3142;48.206;11.550;2022-10-16T00:20:28;2.57;;;2.00;;
6217;SDS011;3142;48.206;11.550;2022-10-16T00:22:56;2.83;;;2.13;;
6217;SDS011;3142;48.206;11.550;2022-10-16T00:25:22;6.10;;;2.03;;
6217;SDS011;3142;48.206;11.550;2022-10-16T00:27:49;4.53;;;2.00;;
6217;SDS011;3142;48.206;11.550;2022-10-16T00:30:15;4.07;;;2.20;;
6217;SDS011;3142;48.206;11.550;2022-10-16T00:32:43;4.27;;;2.40;;
6217;SDS011;3142;48.206;11.550;2022-10-16T00:35:09;4.60;;;2.10;;
6217;SDS011;3142;48.206;11.550;2022-10-16T00:37:36;4.90;;;1.90;;
6217;SDS011;3142;48.206;11.550;2022-10-16T00:40:03;4.67;;;1.80;;
6217;SDS011;3142;48.206;11.550;2022-10-16T00:42:30;2.57;;;2.10;;
6217;SDS011;3142;48.206;11.550;2022-10-16T00:44:57;3.20;;;1.90;;
6217;SDS011;3142;48.206;11.550;2022-10-16T00:47:24;2.20;;;1.60;;
6217;SDS011;3142;48.206;11.550;2022-10-16T00:49:58;3.20;;;1.73;;
6217;SDS011;3142;48.206;11.550;2022-10-16T00:52:27;3.53;;;2.23;;
6217;SDS011;3142;48.206;11.550;2022-10-16T00:54:54;2.33;;;1.73;;
6217;SDS011;3142;48.206;11.550;2022-10-16T00:57:22;2.03;;;1.80;;
6217;SDS011;3142;48.206;11.550;2022-10-16T00:59:49;2.00;;;1.77;;
6217;SDS011;3142;48.206;11.550;2022-10-16T01:02:16;6.87;;;1.67;;
6217;SDS011;3142;48.206;11.550;2022-10-16T01:04:44;3.30;;;1.80;;
6217;SDS011;3142;48.206;11.550;2022-10-16T01:07:14;4.60;;;1.70;;
6217;SDS011;3142;48.206;11.550;2022-10-16T01:09:52;3.87;;;1.77;;
6217;SDS011;3142;48.206;11.550;2022-10-16T01:12:30;2.00;;;1.80;;
6217;SDS011;3142;48.206;11.550;2022-10-16T01:15:06;6.50;;;2.00;;
6217;SDS011;3142;48.206;11.550;2022-10-16T01:17:38;1.80;;;1.63;;
6217;SDS011;3142;48.206;11.550;2022-10-16T01:20:10;1.97;;;1.70;;
6217;SDS011;3142;48.206;11.550;2022-10-16T01:22:47;2.50;;;1.67;;
6217;SDS011;3142;48.206;11.550;2022-10-16T01:25:30;2.37;;;1.80;;
6217;SDS011;3142;48.206;11.550;2022-10-16T01:28:07;3.07;;;1.70;;
6217;SDS011;3142;48.206;11.550;2022-10-16T01:30:37;2.53;;;1.70;;
6217;SDS011;3142;48.206;11.550;2022-10-16T01:33:08;2.83;;;1.60;;
6217;SDS011;3142;48.206;11.550;2022-10-16T01:35:41;4.47;;;2.07;;
6217;SDS011;3142;48.206;11.550;2022-10-16T01:38:12;2.60;;;1.73;;
6217;SDS011;3142;48.206;11.550;2022-10-16T01:40:45;2.00;;;1.80;;
6217;SDS011;3142;48.206;11.550;2022-10-16T01:43:17;7.20;;;1.90;;
6217;SDS011;3142;48.206;11.550;2022-10-16T01:45:47;4.03;;;1.50;;
6217;SDS011;3142;48.206;11.550;2022-10-16T01:48:16;1.60;;;1.50;;
6217;SDS011;3142;48.206;11.550;2022-10-16T01:50:48;1.73;;;1.50;;
6217;SDS011;3142;48.206;11.550;2022-10-16T01:53:20;3.77;;;1.60;;
6217;SDS011;3142;48.206;11.550;2022-10-16T01:55:47;3.00;;;1.60;;
6217;SDS011;3142;48.206;11.550;2022-10-16T01:58:17;4.83;;;1.50;;
6217;SDS011;3142;48.206;11.550;2022-10-16T02:00:44;2.53;;;1.73;;
6217;SDS011;3142;48.206;11.550;2022-10-16T02:03:14;1.60;;;1.40;;
6217;SDS011;3142;48.206;11.550;2022-10-16T02:05:45;3.53;;;1.83;;
6217;SDS011;3142;48.206;11.550;2022-10-16T02:08:13;1.90;;;1.57;;
6217;SDS011;3142;48.206;11.550;2022-10-16T02:10:39;5.27;;;1.47;;
6217;SDS011;3142;48.206;11.550;2022-10-16T02:13:06;3.43;;;1.70;;
6217;SDS011;3142;48.206;11.550;2022-10-16T02:15:39;2.80;;;1.63;;
6217;SDS011;3142;48.206;11.550;2022-10-16T02:18:05;3.97;;;1.70;;
6217;SDS011;3142;48.206;11.550;2022-10-16T02:20:34;3.17;;;1.90;;
6217;SDS011;3142;48.206;11.550;2022-10-16T02:23:04;2.33;;;1.70;;
6217;SDS011;3142;48.206;11.550;2022-10-16T02:25:37;1.80;;;1.50;;
6217;SDS011;3142;48.206;11.550;2022-10-16T02:28:06;2.77;;;2.20;;
6217;SDS011;3142;48.206;11.550;2022-10-16T02:30:40;3.43;;;1.60;;
6217;SDS011;3142;48.206;11.550;2022-10-16T02:33:09;1.90;;;1.50;;
6217;SDS011;3142;48.206;11.550;2022-10-16T02:35:39;3.10;;;1.50;;
6217;SDS011;3142;48.206;11.550;2022-10-16T02:38:07;4.70;;;3.20;;
6217;SDS011;3142;48.206;11.550;2022-10-16T02:40:34;8.77;;;4.10;;
6217;SDS011;3142;48.206;11.550;2022-10-16T02:43:03;14.60;;;9.63;;
6217;SDS011;3142;48.206;11.550;2022-10-16T02:45:30;3.40;;;2.40;;
6217;SDS011;3142;48.206;11.550;2022-10-16T02:47:59;2.83;;;1.80;;
6217;SDS011;3142;48.206;11.550;2022-10-16T02:50:25;5.07;;;2.10;;
6217;SDS011;3142;48.206;11.550;2022-10-16T02:52:52;2.13;;;1.33;;
6217;SDS011;3142;48.206;11.550;2022-10-16T02:55:18;4.30;;;1.60;;
6217;SDS011;3142;48.206;11.550;2022-10-16T02:57:44;2.13;;;1.60;;
6217;SDS011;3142;48.206;11.550;2022-10-16T03:00:12;2.20;;;1.73;;
6217;SDS011;3142;48.206;11.550;2022-10-16T03:02:40;3.63;;;1.30;;
6217;SDS011;3142;48.206;11.550;2022-10-16T03:05:08;1.87;;;1.60;;
6217;SDS011;3142;48.206;11.550;2022-10-16T03:07:35;1.97;;;1.70;;
6217;SDS011;3142;48.206;11.550;2022-10-16T03:10:02;2.53;;;1.50;;
6217;SDS011;3142;48.206;11.550;2022-10-16T03:12:29;5.77;;;1.70;;
6217;SDS011;3142;48.206;11.550;2022-10-16T03:14:56;6.13;;;1.63;;
6217;SDS011;3142;48.206;11.550;2022-10-16T03:17:23;1.90;;;1.50;;
6217;SDS011;3142;48.206;11.550;2022-10-16T03:19:50;1.47;;;1.17;;
6217;SDS011;3142;48.206;11.550;2022-10-16T03:22:18;1.50;;;1.40;;
6217;SDS011;3142;48.206;11.550;2022-10-16T03:24:45;2.37;;;1.53;;
6217;SDS011;3142;48.206;11.550;2022-10-16T03:27:11;1.50;;;1.40;;
6217;SDS011;3142;48.206;11.550;2022-10-16T03:29:38;1.57;;;1.43;;
6217;SDS011;3142;48.206;11.550;2022-10-16T03:32:04;4.30;;;2.00;;
6217;SDS011;3142;48.206;11.550;2022-10-16T03:34:31;1.67;;;1.50;;
6217;SDS011;3142;48.206;11.550;2022-10-16T03:36:57;5.77;;;1.57;;
6217;SDS011;3142;48.206;11.550;2022-10-16T03:39:25;3.20;;;1.83;;
6217;SDS011;3142;48.206;11.550;2022-10-16T03:41:52;3.37;;;1.47;;
6217;SDS011;3142;48.206;11.550;2022-10-16T03:44:18;2.13;;;1.30;;
6217;SDS011;3142;48.206;11.550;2022-10-16T03:46:45;1.60;;;1.20;;
6217;SDS011;3142;48.206;11.550;2022-10-16T03:49:11;1.43;;;1.33;;
6217;SDS011;3142;48.206;11.550;2022-10-16T03:51:38;1.87;;;1.60;;
6217;SDS011;3142;48.206;11.550;2022-10-16T03:54:04;1.50;;;1.40;;
6217;SDS011;3142;48.206;11.550;2022-10-16T03:56:32;1.47;;;1.27;;
6217;SDS011;3142;48.206;11.550;2022-10-16T03:58:58;3.30;;;1.40;;
6217;SDS011;3142;48.206;11.550;2022-10-16T04:01:25;5.57;;;2.17;;
6217;SDS011;3142;48.206;11.550;2022-10-16T04:03:51;3.03;;;1.83;;
6217;SDS011;3142;48.206;11.550;2022-10-16T04:06:18;1.40;;;1.30;;
6217;SDS011;3142;48.206;11.550;2022-10-16T04:08:44;2.23;;;1.30;;
6217;SDS011;3142;48.206;11.550;2022-10-16T04:11:11;5.03;;;1.60;;
6217;SDS011;3142;48.206;11.550;2022-10-16T04:13:39;3.17;;;1.60;;
6217;SDS011;3142;48.206;11.550;2022-10-16T04:16:06;2.57;;;1.50;;
6217;SDS011;3142;48.206;11.550;2022-10-16T04:18:33;2.00;;;1.30;;
6217;SDS011;3142;48.206;11.550;2022-10-16T04:21:01;1.90;;;1.70;;
6217;SDS011;3142;48.206;11.550;2022-10-16T04:23:29;1.57;;;1.47;;
6217;SDS011;3142;48.206;11.550;2022-10-16T04:25:55;1.40;;;1.30;;
6217;SDS011;3142;48.206;11.550;2022-10-16T04:28:22;1.63;;;1.40;;
6217;SDS011;3142;48.206;11.550;2022-10-16T04:30:50;3.20;;;1.80;;
6217;SDS011;3142;48.206;11.550;2022-10-16T04:33:16;3.27;;;2.00;;
6217;SDS011;3142;48.206;11.550;2022-10-16T04:35:43;1.73;;;1.33;;
6217;SDS011;3142;48.206;11.550;2022-10-16T04:38:09;3.47;;;1.73;;
6217;SDS011;3142;48.206;11.550;2022-10-16T04:40:36;1.73;;;1.60;;
6217;SDS011;3142;48.206;11.550;2022-10-16T04:43:02;1.70;;;1.60;;
6217;SDS011;3142;48.206;11.550;2022-10-16T04:45:29;3.13;;;1.70;;
6217;SDS011;3142;48.206;11.550;2022-10-16T04:47:57;1.97;;;1.77;;
6217;SDS011;3142;48.206;11.550;2022-10-16T04:50:24;2.57;;;1.50;;
6217;SDS011;3142;48.206;11.550;2022-10-16T04:52:51;3.30;;;1.67;;
6217;SDS011;3142;48.206;11.550;2022-10-16T04:55:17;4.80;;;1.80;;
6217;SDS011;3142;48.206;11.550;2022-10-16T04:57:44;2.07;;;1.70;;
6217;SDS011;3142;48.206;11.550;2022-10-16T05:00:10;1.40;;;1.30;;
6217;SDS011;3142;48.206;11.550;2022-10-16T05:02:37;3.43;;;1.30;;
6217;SDS011;3142;48.206;11.550;2022-10-16T05:05:06;4.30;;;1.60;;
6217;SDS011;3142;48.206;11.550;2022-10-16T05:07:32;1.60;;;1.40;;
6217;SDS011;3142;48.206;11.550;2022-10-16T05:09:59;3.27;;;1.63;;
6217;SDS011;3142;48.206;11.550;2022-10-16T05:12:25;5.27;;;3.13;;
6217;SDS011;3142;48.206;11.550;2022-10-16T05:14:52;26.07;;;20.97;;
6217;SDS011;3142;48.206;11.550;2022-10-16T05:17:23;11.40;;;8.70;;
6217;SDS011;3142;48.206;11.550;2022-10-16T05:19:49;4.87;;;3.87;;
6217;SDS011;3142;48.206;11.550;2022-10-16T05:22:17;2.90;;;1.90;;
6217;SDS011;3142;48.206;11.550;2022-10-16T05:24:44;2.20;;;1.70;;
6217;SDS011;3142;48.206;11.550;2022-10-16T05:27:10;2.30;;;1.93;;
6217;SDS011;3142;48.206;11.550;2022-10-16T05:29:43;2.73;;;1.60;;
6217;SDS011;3142;48.206;11.550;2022-10-16T05:32:10;2.10;;;1.90;;
6217;SDS011;3142;48.206;11.550;2022-10-16T05:34:37;3.80;;;1.70;;
6217;SDS011;3142;48.206;11.550;2022-10-16T05:37:03;4.90;;;1.80;;
6217;SDS011;3142;48.206;11.550;2022-10-16T05:39:31;3.67;;;1.63;;
6217;SDS011;3142;48.206;11.550;2022-10-16T05:41:57;2.30;;;1.70;;
6217;SDS011;3142;48.206;11.550;2022-10-16T05:44:24;3.53;;;1.90;;
6217;SDS011;3142;48.206;11.550;2022-10-16T05:46:50;5.73;;;1.90;;
6217;SDS011;3142;48.206;11.550;2022-10-16T05:49:17;1.80;;;1.70;;
6217;SDS011;3142;48.206;11.550;2022-10-16T05:51:43;3.20;;;1.70;;
6217;SDS011;3142;48.206;11.550;2022-10-16T05:54:10;24.53;;;17.17;;
6217;SDS011;3142;48.206;11.550;2022-10-16T05:56:38;98.93;;;69.60;;
6217;SDS011;3142;48.206;11.550;2022-10-16T05:59:04;109.30;;;75.20;;
6217;SDS011;3142;48.206;11.550;2022-10-16T06:01:31;18.80;;;13.23;;
6217;SDS011;3142;48.206;11.550;2022-10-16T06:03:58;5.70;;;4.67;;
6217;SDS011;3142;48.206;11.550;2022-10-16T06:06:25;2.20;;;1.90;;
6217;SDS011;3142;48.206;11.550;2022-10-16T06:08:53;3.17;;;1.80;;
6217;SDS011;3142;48.206;11.550;2022-10-16T06:11:20;2.00;;;1.80;;
6217;SDS011;3142;48.206;11.550;2022-10-16T06:13:50;3.17;;;2.10;;
6217;SDS011;3142;48.206;11.550;2022-10-16T06:16:17;2.10;;;1.90;;
6217;SDS011;3142;48.206;11.550;2022-10-16T06:18:46;2.63;;;2.23;;
6217;SDS011;3142;48.206;11.550;2022-10-16T06:21:13;3.40;;;3.10;;
6217;SDS011;3142;48.206;11.550;2022-10-16T06:23:43;5.07;;;3.50;;
6217;SDS011;3142;48.206;11.550;2022-10-16T06:26:11;6.40;;;4.37;;
6217;SDS011;3142;48.206;11.550;2022-10-16T06:28:39;7.23;;;4.73;;
6217;SDS011;3142;48.206;11.550;2022-10-16T06:31:08;10.13;;;7.23;;
6217;SDS011;3142;48.206;11.550;2022-10-16T06:33:36;48.30;;;30.13;;
6217;SDS011;3142;48.206;11.550;2022-10-16T06:36:03;19.27;;;11.53;;
6217;SDS011;3142;48.206;11.550;2022-10-16T06:38:31;5.03;;;4.07;;
6217;SDS011;3142;48.206;11.550;2022-10-16T06:40:58;5.03;;;4.20;;
6217;SDS011;3142;48.206;11.550;2022-10-16T06:43:24;4.17;;;2.60;;
6217;SDS011;3142;48.206;11.550;2022-10-16T06:45:51;4.20;;;2.93;;
6217;SDS011;3142;48.206;11.550;2022-10-16T06:48:20;4.50;;;2.87;;
6217;SDS011;3142;48.206;11.550;2022-10-16T06:50:54;3.30;;;2.57;;
6217;SDS011;3142;48.206;11.550;2022-10-16T06:53:22;3.10;;;2.73;;
6217;SDS011;3142;48.206;11.550;2022-10-16T06:55:48;9.20;;;5.73;;
6217;SDS011;3142;48.206;11.550;2022-10-16T06:58:15;5.57;;;4.23;;
6217;SDS011;3142;48.206;11.550;2022-10-16T07:00:41;5.20;;;3.47;;
6217;SDS011;3142;48.206;11.550;2022-10-16T07:03:08;6.30;;;3.03;;
6217;SDS011;3142;48.206;11.550;2022-10-16T07:05:38;52.43;;;32.83;;
6217;SDS011;3142;48.206;11.550;2022-10-16T07:08:04;18.17;;;12.23;;
6217;SDS011;3142;48.206;11.550;2022-10-16T07:10:31;9.90;;;7.73;;
6217;SDS011;3142;48.206;11.550;2022-10-16T07:12:58;4.00;;;3.30;;
6217;SDS011;3142;48.206;11.550;2022-10-16T07:15:24;38.33;;;26.97;;
6217;SDS011;3142;48.206;11.550;2022-10-16T07:17:51;61.60;;;40.20;;
6217;SDS011;3142;48.206;11.550;2022-10-16T07:20:18;21.23;;;14.83;;
6217;SDS011;3142;48.206;11.550;2022-10-16T07:22:46;13.60;;;8.47;;
6217;SDS011;3142;48.206;11.550;2022-10-16T07:25:13;6.63;;;4.70;;
6217;SDS011;3142;48.206;11.550;2022-10-16T07:27:39;5.20;;;4.17;;
6217;SDS011;3142;48.206;11.550;2022-10-16T07:30:06;7.30;;;4.87;;
6217;SDS011;3142;48.206;11.550;2022-10-16T07:32:33;8.93;;;7.13;;
6217;SDS011;3142;48.206;11.550;2022-10-16T07:34:59;7.47;;;5.50;;
6217;SDS011;3142;48.206;11.550;2022-10-16T07:37:26;13.13;;;9.07;;
6217;SDS011;3142;48.206;11.550;2022-10-16T07:39:54;10.80;;;7.93;;
6217;SDS011;3142;48.206;11.550;2022-10-16T07:42:20;6.90;;;5.70;;
6217;SDS011;3142;48.206;11.550;2022-10-16T07:44:47;11.20;;;7.93;;
6217;SDS011;3142;48.206;11.550;2022-10-16T07:47:13;8.90;;;5.87;;
6217;SDS011;3142;48.206;11.550;2022-10-16T07:49:40;12.63;;;5.47;;
6217;SDS011;3142;48.206;11.550;2022-10-16T07:52:06;7.30;;;6.03;;
6217;SDS011;3142;48.206;11.550;2022-10-16T07:54:33;13.30;;;10.27;;
6217;SDS011;3142;48.206;11.550;2022-10-16T07:57:00;19.70;;;14.27;;
6217;SDS011;3142;48.206;11.550;2022-10-16T07:59:27;7.15;;;4.85;;
6217;SDS011;3142;48.206;11.550;2022-10-16T08:01:53;3.33;;;3.03;;
6217;SDS011;3142;48.206;11.550;2022-10-16T08:04:20;4.35;;;3.13;;
6217;SDS011;3142;48.206;11.550;2022-10-16T08:06:46;5.25;;;2.83;;
6217;SDS011;3142;48.206;11.550;2022-10-16T08:09:14;5.35;;;2.55;;
6217;SDS011;3142;48.206;11.550;2022-10-16T08:11:40;3.35;;;2.88;;
6217;SDS011;3142;48.206;11.550;2022-10-16T08:14:08;6.18;;;2.90;;
6217;SDS011;3142;48.206;11.550;2022-10-16T08:16:34;3.25;;;2.53;;
6217;SDS011;3142;48.206;11.550;2022-10-16T08:19:01;1.98;;;1.83;;
6217;SDS011;3142;48.206;11.550;2022-10-16T08:21:27;4.03;;;2.30;;
6217;SDS011;3142;48.206;11.550;2022-10-16T08:23:54;3.50;;;2.25;;
6217;SDS011;3142;48.206;11.550;2022-10-16T08:26:20;2.15;;;1.88;;
6217;SDS011;3142;48.206;11.550;2022-10-16T08:28:49;3.28;;;1.98;;
6217;SDS011;3142;48.206;11.550;2022-10-16T08:31:17;2.22;;;2.03;;
6217;SDS011;3142;48.206;11.550;2022-10-16T08:33:44;3.17;;;1.90;;
6217;SDS011;3142;48.206;11.550;2022-10-16T08:36:12;4.47;;;3.22;;
6217;SDS011;3142;48.206;11.550;2022-10-16T08:38:39;2.88;;;2.53;;
6217;SDS011;3142;48.206;11.550;2022-10-16T08:41:20;3.25;;;2.63;;
6217;SDS011;3142;48.206;11.550;2022-10-16T08:44:07;6.80;;;3.58;;
6217;SDS011;3142;48.206;11.550;2022-10-16T08:46:58;2.05;;;1.85;;
6217;SDS011;3142;48.206;11.550;2022-10-16T08:49:31;4.80;;;1.77;;
6217;SDS011;3142;48.206;11.550;2022-10-16T08:51:58;1.90;;;1.65;;
6217;SDS011;3142;48.206;11.550;2022-10-16T08:54:27;3.13;;;2.83;;
6217;SDS011;3142;48.206;11.550;2022-10-16T08:56:56;4.63;;;4.22;;
6217;SDS011;3142;48.206;11.550;2022-10-16T08:59:26;2.35;;;2.15;;
6217;SDS011;3142;48.206;11.550;2022-10-16T09:01:53;2.40;;;2.20;;
6217;SDS011;3142;48.206;11.550;2022-10-16T09:07:21;3.08;;;1.90;;
6217;SDS011;3142;48.206;11.550;2022-10-16T09:10:09;2.60;;;1.83;;
6217;SDS011;3142;48.206;11.550;2022-10-16T09:12:47;2.10;;;1.73;;
6217;SDS011;3142;48.206;11.550;2022-10-16T09:15:22;1.85;;;1.63;;
6217;SDS011;3142;48.206;11.550;2022-10-16T09:17:56;5.32;;;4.50;;
6217;SDS011;3142;48.206;11.550;2022-10-16T09:20:34;2.75;;;2.45;;
6217;SDS011;3142;48.206;11.550;2022-10-16T09:23:10;3.50;;;3.20;;
6217;SDS011;3142;48.206;11.550;2022-10-16T09:25:42;2.10;;;1.90;;
6217;SDS011;3142;48.206;11.550;2022-10-16T09:28:12;2.78;;;1.70;;
6217;SDS011;3142;48.206;11.550;2022-10-16T09:30:39;1.85;;;1.70;;
6217;SDS011;3142;48.206;11.550;2022-10-16T09:33:06;1.60;;;1.50;;
6217;SDS011;3142;48.206;11.550;2022-10-16T09:35:37;1.70;;;1.50;;
6217;SDS011;3142;48.206;11.550;2022-10-16T09:38:05;1.88;;;1.77;;
6217;SDS011;3142;48.206;11.550;2022-10-16T09:40:33;5.15;;;1.67;;
6217;SDS011;3142;48.206;11.550;2022-10-16T09:43:03;1.80;;;1.70;;
6217;SDS011;3142;48.206;11.550;2022-10-16T09:45:39;8.10;;;4.72;;
6217;SDS011;3142;48.206;11.550;2022-10-16T09:48:10;4.00;;;1.50;;
6217;SDS011;3142;48.206;11.550;2022-10-16T09:50:39;2.08;;;1.75;;
6217;SDS011;3142;48.206;11.550;2022-10-16T09:53:07;3.00;;;2.25;;
6217;SDS011;3142;48.206;11.550;2022-10-16T09:55:47;1.45;;;1.35;;
6217;SDS011;3142;48.206;11.550;2022-10-16T09:58:14;3.00;;;1.40;;
6217;SDS011;3142;48.206;11.550;2022-10-16T10:00:40;3.83;;;1.58;;
6217;SDS011;3142;48.206;11.550;2022-10-16T10:03:09;1.83;;;1.70;;
6217;SDS011;3142;48.206;11.550;2022-10-16T10:05:38;1.52;;;1.40;;
6217;SDS011;3142;48.206;11.550;2022-10-16T10:08:06;5.32;;;1.95;;
6217;SDS011;3142;48.206;11.550;2022-10-16T10:10:34;2.22;;;1.92;;
6217;SDS011;3142;48.206;11.550;2022-10-16T10:13:16;1.50;;;1.40;;
6217;SDS011;3142;48.206;11.550;2022-10-16T10:15:45;3.70;;;1.85;;
6217;SDS011;3142;48.206;11.550;2022-10-16T10:18:15;1.65;;;1.50;;
6217;SDS011;3142;48.206;11.550;2022-10-16T10:20:45;3.90;;;1.60;;
6217;SDS011;3142;48.206;11.550;2022-10-16T10:23:24;3.33;;;1.67;;
6217;SDS011;3142;48.206;11.550;2022-10-16T10:25:52;3.47;;;1.67;;
6217;SDS011;3142;48.206;11.550;2022-10-16T10:28:32;1.70;;;1.60;;
6217;SDS011;3142;48.206;11.550;2022-10-16T10:31:11;2.28;;;1.60;;
6217;SDS011;3142;48.206;11.550;2022-10-16T10:33:41;2.85;;;2.63;;
6217;SDS011;3142;48.206;11.550;2022-10-16T10:36:16;3.10;;;2.80;;
6217;SDS011;3142;48.206;11.550;2022-10-16T10:38:52;4.47;;;1.33;;
6217;SDS011;3142;48.206;11.550;2022-10-16T10:41:27;1.67;;;1.50;;
6217;SDS011;3142;48.206;11.550;2022-10-16T10:44:07;2.08;;;1.48;;
6217;SDS011;3142;48.206;11.550;2022-10-16T10:46:44;3.03;;;1.48;;
6217;SDS011;3142;48.206;11.550;2022-10-16T10:49:19;1.60;;;1.40;;
6217;SDS011;3142;48.206;11.550;2022-10-16T10:52:01;1.25;;;1.13;;
6217;SDS011;3142;48.206;11.550;2022-10-16T10:54:40;1.20;;;1.10;;
6217;SDS011;3142;48.206;11.550;2022-10-16T10:57:17;2.60;;;1.20;;
6217;SDS011;3142;48.206;11.550;2022-10-16T10:59:52;1.20;;;1.10;;
6217;SDS011;3142;48.206;11.550;2022-10-16T11:02:30;1.30;;;1.20;;
6217;SDS011;3142;48.206;11.550;2022-10-16T11:07:58;6.22;;;4.75;;
6217;SDS011;3142;48.206;11.550;2022-10-16T11:10:28;2.30;;;2.05;;
6217;SDS011;3142;48.206;11.550;2022-10-16T11:13:04;0.95;;;0.88;;
6217;SDS011;3142;48.206;11.550;2022-10-16T11:15:41;0.75;;;0.75;;
6217;SDS011;3142;48.206;11.550;2022-10-16T11:18:12;1.30;;;1.20;;
6217;SDS011;3142;48.206;11.550;2022-10-16T11:20:47;2.38;;;1.20;;
6217;SDS011;3142;48.206;11.550;2022-10-16T11:23:21;1.38;;;1.20;;
6217;SDS011;3142;48.206;11.550;2022-10-16T11:25:51;0.95;;;0.88;;
6217;SDS011;3142;48.206;11.550;2022-10-16T11:28:20;2.15;;;1.40;;
6217;SDS011;3142;48.206;11.550;2022-10-16T11:30:52;1.75;;;1.35;;
6217;SDS011;3142;48.206;11.550;2022-10-16T11:33:25;2.95;;;2.72;;
6217;SDS011;3142;48.206;11.550;2022-10-16T11:35:59;1.13;;;1.00;;
6217;SDS011;3142;48.206;11.550;2022-10-16T11:38:32;1.83;;;1.00;;
6217;SDS011;3142;48.206;11.550;2022-10-16T11:41:09;2.20;;;1.92;;
6217;SDS011;3142;48.206;11.550;2022-10-16T11:43:42;4.03;;;2.10;;
6217;SDS011;3142;48.206;11.550;2022-10-16T11:46:13;5.05;;;1.45;;
6217;SDS011;3142;48.206;11.550;2022-10-16T11:48:45;1.42;;;1.33;;
6217;SDS011;3142;48.206;11.550;2022-10-16T11:51:19;5.35;;;1.63;;
6217;SDS011;3142;48.206;11.550;2022-10-16T11:53:55;5.43;;;4.35;;
6217;SDS011;3142;48.206;11.550;2022-10-16T11:56:25;11.55;;;8.18;;
6217;SDS011;3142;48.206;11.550;2022-10-16T11:58:54;5.22;;;3.05;;
6217;SDS011;3142;48.206;11.550;2022-10-16T12:01:27;1.52;;;1.38;;
6217;SDS011;3142;48.206;11.550;2022-10-16T12:04:00;2.40;;;1.67;;
6217;SDS011;3142;48.206;11.550;2022-10-16T12:06:39;5.07;;;2.42;;
6217;SDS011;3142;48.206;11.550;2022-10-16T12:09:10;1.30;;;1.20;;
6217;SDS011;3142;48.206;11.550;2022-10-16T12:11:41;0.88;;;0.88;;
6217;SDS011;3142;48.206;11.550;2022-10-16T12:14:18;1.38;;;1.10;;
6217;SDS011;3142;48.206;11.550;2022-10-16T12:16:51;1.80;;;1.20;;
6217;SDS011;3142;48.206;11.550;2022-10-16T12:19:19;1.63;;;1.48;;
6217;SDS011;3142;48.206;11.550;2022-10-16T12:21:47;1.58;;;1.20;;
6217;SDS011;3142;48.206;11.550;2022-10-16T12:24:27;1.10;;;1.00;;
6217;SDS011;3142;48.206;11.550;2022-10-16T12:26:58;1.92;;;1.30;;
6217;SDS011;3142;48.206;11.550;2022-10-16T12:29:28;2.70;;;1.35;;
6217;SDS011;3142;48.206;11.550;2022-10-16T12:32:00;1.67;;;1.20;;
6217;SDS011;3142;48.206;11.550;2022-10-16T12:34:29;1.58;;;1.20;;
6217;SDS011;3142;48.206;11.550;2022-10-16T12:37:07;1.10;;;1.00;;
6217;SDS011;3142;48.206;11.550;2022-10-16T12:39:38;1.40;;;1.20;;
6217;SDS011;3142;48.206;11.550;2022-10-16T12:42:17;1.30;;;0.90;;
6217;SDS011;3142;48.206;11.550;2022-10-16T12:44:47;3.63;;;1.10;;
6217;SDS011;3142;48.206;11.550;2022-10-16T12:47:19;1.63;;;0.98;;
6217;SDS011;3142;48.206;11.550;2022-10-16T12:49:48;3.08;;;1.20;;
6217;SDS011;3142;48.206;11.550;2022-10-16T12:52:26;1.30;;;1.20;;
6217;SDS011;3142;48.206;11.550;2022-10-16T12:54:57;4.35;;;3.63;;
6217;SDS011;3142;48.206;11.550;2022-10-16T12:57:29;5.47;;;4.93;;
6217;SDS011;3142;48.206;11.550;2022-10-16T13:00:09;11.27;;;8.63;;
6217;SDS011;3142;48.206;11.550;2022-10-16T13:02:53;2.05;;;1.85;;
6217;SDS011;3142;48.206;11.550;2022-10-16T13:05:32;1.30;;;1.10;;
6217;SDS011;3142;48.206;11.550;2022-10-16T13:08:18;1.30;;;1.00;;
6217;SDS011;3142;48.206;11.550;2022-10-16T13:11:02;1.05;;;1.02;;
6217;SDS011;3142;48.206;11.550;2022-10-16T13:13:44;5.82;;;2.60;;
6217;SDS011;3142;48.206;11.550;2022-10-16T13:16:49;13.32;;;10.32;;
6217;SDS011;3142;48.206;11.550;2022-10-16T13:19:24;4.85;;;3.88;;
6217;SDS011;3142;48.206;11.550;2022-10-16T13:22:00;4.68;;;1.80;;
6217;SDS011;3142;48.206;11.550;2022-10-16T13:24:39;1.73;;;1.00;;
6217;SDS011;3142;48.206;11.550;2022-10-16T13:27:18;1.95;;;0.90;;
6217;SDS011;3142;48.206;11.550;2022-10-16T13:30:00;2.17;;;1.00;;
6217;SDS011;3142;48.206;11.550;2022-10-16T13:32:33;2.22;;;1.60;;
6217;SDS011;3142;48.206;11.550;2022-10-16T13:35:00;2.05;;;1.70;;
6217;SDS011;3142;48.206;11.550;2022-10-16T13:37:27;1.10;;;1.00;;
6217;SDS011;3142;48.206;11.550;2022-10-16T13:40:02;10.70;;;7.82;;
6217;SDS011;3142;48.206;11.550;2022-10-16T13:42:40;24.13;;;19.88;;
6217;SDS011;3142;48.206;11.550;2022-10-16T13:45:16;28.30;;;24.88;;
6217;SDS011;3142;48.206;11.550;2022-10-16T13:47:44;6.80;;;5.85;;
6217;SDS011;3142;48.206;11.550;2022-10-16T13:50:11;2.85;;;2.13;;
6217;SDS011;3142;48.206;11.550;2022-10-16T13:52:39;1.67;;;1.52;;
6217;SDS011;3142;48.206;11.550;2022-10-16T13:55:09;2.33;;;1.25;;
6217;SDS011;3142;48.206;11.550;2022-10-16T13:57:37;0.95;;;0.93;;
6217;SDS011;3142;48.206;11.550;2022-10-16T14:00:17;2.10;;;1.00;;
6217;SDS011;3142;48.206;11.550;2022-10-16T14:02:45;1.98;;;1.05;;
6217;SDS011;3142;48.206;11.550;2022-10-16T14:05:16;2.22;;;0.90;;
6217;SDS011;3142;48.206;11.550;2022-10-16T14:07:43;3.78;;;1.50;;
6217;SDS011;3142;48.206;11.550;2022-10-16T14:10:18;3.17;;;0.98;;
6217;SDS011;3142;48.206;11.550;2022-10-16T14:12:53;3.28;;;1.00;;
6217;SDS011;3142;48.206;11.550;2022-10-16T14:15:23;10.75;;;6.85;;
6217;SDS011;3142;48.206;11.550;2022-10-16T14:17:50;7.88;;;5.28;;
6217;SDS011;3142;48.206;11.550;2022-10-16T14:20:20;11.40;;;9.30;;
6217;SDS011;3142;48.206;11.550;2022-10-16T14:22:57;3.20;;;2.00;;
6217;SDS011;3142;48.206;11.550;2022-10-16T14:25:26;5.80;;;2.20;;
6217;SDS011;3142;48.206;11.550;2022-10-16T14:27:58;4.95;;;1.85;;
6217;SDS011;3142;48.206;11.550;2022-10-16T14:30:28;5.18;;;1.75;;
6217;SDS011;3142;48.206;11.550;2022-10-16T14:32:57;2.60;;;1.73;;
6217;SDS011;3142;48.206;11.550;2022-10-16T14:35:25;5.40;;;1.55;;
6217;SDS011;3142;48.206;11.550;2022-10-16T14:37:59;1.20;;;1.10;;
6217;SDS011;3142;48.206;11.550;2022-10-16T14:40:27;1.40;;;1.13;;
6217;SDS011;3142;48.206;11.550;2022-10-16T14:42:56;4.75;;;1.35;;
6217;SDS011;3142;48.206;11.550;2022-10-16T14:45:24;2.88;;;1.00;;
6217;SDS011;3142;48.206;11.550;2022-10-16T14:47:55;4.20;;;1.38;;
6217;SDS011;3142;48.206;11.550;2022-10-16T14:50:23;1.40;;;1.17;;
6217;SDS011;3142;48.206;11.550;2022-10-16T14:52:50;1.70;;;1.10;;
6217;SDS011;3142;48.206;11.550;2022-10-16T14:55:17;1.95;;;0.98;;
6217;SDS011;3142;48.206;11.550;2022-10-16T14:57:44;1.30;;;0.93;;
6217;SDS011;3142;48.206;11.550;2022-10-16T15:00:14;1.10;;;0.82;;
6217;SDS011;3142;48.206;11.550;2022-10-16T15:02:42;2.35;;;1.27;;
6217;SDS011;3142;48.206;11.550;2022-10-16T15:05:15;2.80;;;1.10;;
6217;SDS011;3142;48.206;11.550;2022-10-16T15:07:43;2.65;;;1.08;;
6217;SDS011;3142;48.206;11.550;2022-10-16T15:10:11;2.47;;;1.17;;
6217;SDS011;3142;48.206;11.550;2022-10-16T15:12:38;2.50;;;1.20;;
6217;SDS011;3142;48.206;11.550;2022-10-16T15:18:00;3.90;;;0.93;;
6217;SDS011;3142;48.206;11.550;2022-10-16T15:20:30;1.98;;;1.10;;
6217;SDS011;3142;48.206;11.550;2022-10-16T15:22:59;3.05;;;1.42;;
6217;SDS011;3142;48.206;11.550;2022-10-16T15:25:32;2.50;;;1.40;;